sensor_id;sensor_type;location;lat;lon;timestamp;P1;durP1;ratioP1;P2;durP2;ratioP2
71391;SDS011;59205;50.610;12.638;2022-08-21T00:00:47;31.40;;;22.17;;
71391;SDS011;59205;50.610;12.638;2022-08-21T00:03:13;31.67;;;22.20;;
71391;SDS011;59205;50.610;12.638;2022-08-21T00:05:42;30.52;;;22.17;;
71391;SDS011;59205;50.610;12.638;2022-08-21T00:08:12;30.20;;;23.00;;
71391;SDS011;59205;50.610;12.638;2022-08-21T00:10:38;31.73;;;22.33;;
71391;SDS011;59205;50.610;12.638;2022-08-21T00:13:05;32.53;;;22.58;;
71391;SDS011;59205;50.610;12.638;2022-08-21T00:15:32;30.58;;;22.02;;
71391;SDS011;59205;50.610;12.638;2022-08-21T00:17:59;34.72;;;23.13;;
71391;SDS011;59205;50.610;12.638;2022-08-21T00:20:25;37.75;;;23.83;;
71391;SDS011;59205;50.610;12.638;2022-08-21T00:22:51;34.25;;;23.67;;
71391;SDS011;59205;50.610;12.638;2022-08-21T00:25:17;37.65;;;24.65;;
71391;SDS011;59205;50.610;12.638;2022-08-21T00:27:43;160.27;;;115.75;;
71391;SDS011;59205;50.610;12.638;2022-08-21T00:30:10;55.50;;;36.60;;
71391;SDS011;59205;50.610;12.638;2022-08-21T00:32:37;43.72;;;28.38;;
71391;SDS011;59205;50.610;12.638;2022-08-21T00:35:04;45.85;;;29.20;;
71391;SDS011;59205;50.610;12.638;2022-08-21T00:37:36;48.33;;;29.85;;
71391;SDS011;59205;50.610;12.638;2022-08-21T00:40:02;52.83;;;30.25;;
71391;SDS011;59205;50.610;12.638;2022-08-21T00:42:30;53.83;;;32.95;;
71391;SDS011;59205;50.610;12.638;2022-08-21T00:44:56;52.55;;;31.73;;
71391;SDS011;59205;50.610;12.638;2022-08-21T00:47:23;56.75;;;33.67;;
71391;SDS011;59205;50.610;12.638;2022-08-21T00:49:48;55.67;;;33.13;;
71391;SDS011;59205;50.610;12.638;2022-08-21T00:52:16;60.78;;;33.67;;
71391;SDS011;59205;50.610;12.638;2022-08-21T00:57:12;59.25;;;35.17;;
71391;SDS011;59205;50.610;12.638;2022-08-21T00:59:41;64.20;;;36.15;;
71391;SDS011;59205;50.610;12.638;2022-08-21T01:02:10;71.45;;;38.65;;
71391;SDS011;59205;50.610;12.638;2022-08-21T01:04:36;60.33;;;34.83;;
71391;SDS011;59205;50.610;12.638;2022-08-21T01:07:02;65.18;;;37.75;;
71391;SDS011;59205;50.610;12.638;2022-08-21T01:09:27;61.97;;;36.08;;
71391;SDS011;59205;50.610;12.638;2022-08-21T01:11:53;62.70;;;37.53;;
71391;SDS011;59205;50.610;12.638;2022-08-21T01:14:18;75.18;;;40.20;;
71391;SDS011;59205;50.610;12.638;2022-08-21T01:16:46;77.22;;;41.70;;
71391;SDS011;59205;50.610;12.638;2022-08-21T01:21:42;78.63;;;41.67;;
71391;SDS011;59205;50.610;12.638;2022-08-21T01:24:07;83.40;;;42.92;;
71391;SDS011;59205;50.610;12.638;2022-08-21T01:26:34;81.88;;;44.17;;
71391;SDS011;59205;50.610;12.638;2022-08-21T01:29:03;91.32;;;46.45;;
71391;SDS011;59205;50.610;12.638;2022-08-21T01:31:35;99.72;;;49.08;;
71391;SDS011;59205;50.610;12.638;2022-08-21T01:34:01;96.60;;;49.35;;
71391;SDS011;59205;50.610;12.638;2022-08-21T01:36:27;101.00;;;50.03;;
71391;SDS011;59205;50.610;12.638;2022-08-21T01:38:53;107.45;;;52.92;;
71391;SDS011;59205;50.610;12.638;2022-08-21T01:41:18;105.05;;;52.55;;
71391;SDS011;59205;50.610;12.638;2022-08-21T01:43:44;108.57;;;52.95;;
71391;SDS011;59205;50.610;12.638;2022-08-21T01:46:10;116.05;;;54.78;;
71391;SDS011;59205;50.610;12.638;2022-08-21T01:48:36;130.93;;;58.20;;
71391;SDS011;59205;50.610;12.638;2022-08-21T01:51:03;126.15;;;57.30;;
71391;SDS011;59205;50.610;12.638;2022-08-21T01:53:29;132.05;;;58.53;;
71391;SDS011;59205;50.610;12.638;2022-08-21T01:55:55;129.30;;;58.53;;
71391;SDS011;59205;50.610;12.638;2022-08-21T01:58:20;145.60;;;62.25;;
71391;SDS011;59205;50.610;12.638;2022-08-21T02:00:46;141.65;;;61.05;;
71391;SDS011;59205;50.610;12.638;2022-08-21T02:03:11;130.55;;;58.85;;
71391;SDS011;59205;50.610;12.638;2022-08-21T02:05:37;172.85;;;65.78;;
71391;SDS011;59205;50.610;12.638;2022-08-21T02:08:02;164.20;;;65.22;;
71391;SDS011;59205;50.610;12.638;2022-08-21T02:10:29;184.93;;;69.72;;
71391;SDS011;59205;50.610;12.638;2022-08-21T02:12:56;160.18;;;66.47;;
71391;SDS011;59205;50.610;12.638;2022-08-21T02:15:24;179.80;;;69.10;;
71391;SDS011;59205;50.610;12.638;2022-08-21T02:17:51;165.65;;;66.55;;
71391;SDS011;59205;50.610;12.638;2022-08-21T02:20:20;196.00;;;71.07;;
71391;SDS011;59205;50.610;12.638;2022-08-21T02:22:48;183.52;;;70.43;;
71391;SDS011;59205;50.610;12.638;2022-08-21T02:25:15;200.18;;;71.47;;
71391;SDS011;59205;50.610;12.638;2022-08-21T02:27:43;262.45;;;76.57;;
71391;SDS011;59205;50.610;12.638;2022-08-21T02:30:13;329.15;;;76.68;;
71391;SDS011;59205;50.610;12.638;2022-08-21T02:32:40;207.18;;;70.07;;
71391;SDS011;59205;50.610;12.638;2022-08-21T02:35:07;305.73;;;78.15;;
71391;SDS011;59205;50.610;12.638;2022-08-21T02:37:34;242.20;;;74.43;;
71391;SDS011;59205;50.610;12.638;2022-08-21T02:40:07;254.10;;;74.68;;
71391;SDS011;59205;50.610;12.638;2022-08-21T02:42:36;227.90;;;71.93;;
71391;SDS011;59205;50.610;12.638;2022-08-21T02:45:01;269.83;;;75.97;;
71391;SDS011;59205;50.610;12.638;2022-08-21T02:47:27;243.25;;;74.28;;
71391;SDS011;59205;50.610;12.638;2022-08-21T02:49:53;261.52;;;76.45;;
71391;SDS011;59205;50.610;12.638;2022-08-21T02:52:18;269.20;;;76.68;;
71391;SDS011;59205;50.610;12.638;2022-08-21T02:54:44;292.02;;;78.18;;
71391;SDS011;59205;50.610;12.638;2022-08-21T02:57:09;254.32;;;77.20;;
71391;SDS011;59205;50.610;12.638;2022-08-21T02:59:34;233.10;;;76.07;;
71391;SDS011;59205;50.610;12.638;2022-08-21T03:02:00;258.95;;;79.78;;
71391;SDS011;59205;50.610;12.638;2022-08-21T03:04:26;263.75;;;79.53;;
71391;SDS011;59205;50.610;12.638;2022-08-21T03:06:51;247.15;;;80.35;;
71391;SDS011;59205;50.610;12.638;2022-08-21T03:09:16;235.35;;;77.65;;
71391;SDS011;59205;50.610;12.638;2022-08-21T03:11:42;219.80;;;74.03;;
71391;SDS011;59205;50.610;12.638;2022-08-21T03:14:08;231.95;;;74.28;;
71391;SDS011;59205;50.610;12.638;2022-08-21T03:16:34;213.65;;;72.18;;
71391;SDS011;59205;50.610;12.638;2022-08-21T03:19:00;208.10;;;70.15;;
71391;SDS011;59205;50.610;12.638;2022-08-21T03:21:25;199.40;;;69.13;;
71391;SDS011;59205;50.610;12.638;2022-08-21T03:23:51;198.85;;;67.32;;
71391;SDS011;59205;50.610;12.638;2022-08-21T03:26:16;195.20;;;67.70;;
71391;SDS011;59205;50.610;12.638;2022-08-21T03:28:42;183.02;;;63.22;;
71391;SDS011;59205;50.610;12.638;2022-08-21T03:31:08;163.85;;;59.25;;
71391;SDS011;59205;50.610;12.638;2022-08-21T03:33:33;159.02;;;57.03;;
71391;SDS011;59205;50.610;12.638;2022-08-21T03:36:00;168.05;;;58.00;;
71391;SDS011;59205;50.610;12.638;2022-08-21T03:38:29;157.95;;;57.00;;
71391;SDS011;59205;50.610;12.638;2022-08-21T03:40:56;139.93;;;53.40;;
71391;SDS011;59205;50.610;12.638;2022-08-21T03:43:23;150.20;;;54.53;;
71391;SDS011;59205;50.610;12.638;2022-08-21T03:45:48;142.88;;;52.35;;
71391;SDS011;59205;50.610;12.638;2022-08-21T03:48:14;135.30;;;52.08;;
71391;SDS011;59205;50.610;12.638;2022-08-21T03:50:41;156.65;;;56.95;;
71391;SDS011;59205;50.610;12.638;2022-08-21T03:53:09;168.65;;;58.88;;
71391;SDS011;59205;50.610;12.638;2022-08-21T03:55:35;159.77;;;57.53;;
71391;SDS011;59205;50.610;12.638;2022-08-21T03:58:00;162.57;;;59.55;;
71391;SDS011;59205;50.610;12.638;2022-08-21T04:00:26;194.68;;;60.28;;
71391;SDS011;59205;50.610;12.638;2022-08-21T04:02:51;181.32;;;60.47;;
71391;SDS011;59205;50.610;12.638;2022-08-21T04:05:17;170.35;;;58.25;;
71391;SDS011;59205;50.610;12.638;2022-08-21T04:07:59;163.30;;;58.13;;
71391;SDS011;59205;50.610;12.638;2022-08-21T04:10:27;172.93;;;59.35;;
71391;SDS011;59205;50.610;12.638;2022-08-21T04:12:54;166.50;;;57.30;;
71391;SDS011;59205;50.610;12.638;2022-08-21T04:15:20;163.75;;;59.33;;
71391;SDS011;59205;50.610;12.638;2022-08-21T04:17:46;160.75;;;57.63;;
71391;SDS011;59205;50.610;12.638;2022-08-21T04:20:13;169.60;;;58.97;;
71391;SDS011;59205;50.610;12.638;2022-08-21T04:22:39;142.18;;;54.40;;
71391;SDS011;59205;50.610;12.638;2022-08-21T04:25:05;130.32;;;51.75;;
71391;SDS011;59205;50.610;12.638;2022-08-21T04:27:32;126.38;;;50.67;;
71391;SDS011;59205;50.610;12.638;2022-08-21T04:29:58;126.18;;;50.42;;
71391;SDS011;59205;50.610;12.638;2022-08-21T04:32:25;132.63;;;50.78;;
71391;SDS011;59205;50.610;12.638;2022-08-21T04:34:58;126.43;;;50.55;;
71391;SDS011;59205;50.610;12.638;2022-08-21T04:37:24;144.27;;;64.68;;
71391;SDS011;59205;50.610;12.638;2022-08-21T04:39:49;126.82;;;51.55;;
71391;SDS011;59205;50.610;12.638;2022-08-21T04:42:15;117.68;;;49.47;;
71391;SDS011;59205;50.610;12.638;2022-08-21T04:44:40;127.68;;;51.63;;
71391;SDS011;59205;50.610;12.638;2022-08-21T04:47:06;134.95;;;51.17;;
71391;SDS011;59205;50.610;12.638;2022-08-21T04:49:32;120.68;;;50.63;;
71391;SDS011;59205;50.610;12.638;2022-08-21T04:51:58;115.25;;;48.65;;
71391;SDS011;59205;50.610;12.638;2022-08-21T04:54:24;112.80;;;47.47;;
71391;SDS011;59205;50.610;12.638;2022-08-21T04:56:54;114.68;;;48.35;;
71391;SDS011;59205;50.610;12.638;2022-08-21T04:59:26;119.07;;;48.53;;
71391;SDS011;59205;50.610;12.638;2022-08-21T05:01:56;110.57;;;48.67;;
71391;SDS011;59205;50.610;12.638;2022-08-21T05:04:23;104.57;;;47.38;;
71391;SDS011;59205;50.610;12.638;2022-08-21T05:06:52;99.80;;;46.23;;
71391;SDS011;59205;50.610;12.638;2022-08-21T05:09:19;92.13;;;45.30;;
71391;SDS011;59205;50.610;12.638;2022-08-21T05:11:46;85.35;;;43.55;;
71391;SDS011;59205;50.610;12.638;2022-08-21T05:14:13;85.85;;;44.13;;
71391;SDS011;59205;50.610;12.638;2022-08-21T05:16:39;150.43;;;92.90;;
71391;SDS011;59205;50.610;12.638;2022-08-21T05:19:06;83.30;;;43.05;;
71391;SDS011;59205;50.610;12.638;2022-08-21T05:21:33;89.72;;;45.40;;
71391;SDS011;59205;50.610;12.638;2022-08-21T05:24:00;98.63;;;45.75;;
71391;SDS011;59205;50.610;12.638;2022-08-21T05:26:25;97.78;;;46.35;;
71391;SDS011;59205;50.610;12.638;2022-08-21T05:28:51;98.47;;;47.45;;
71391;SDS011;59205;50.610;12.638;2022-08-21T05:31:17;96.18;;;46.60;;
71391;SDS011;59205;50.610;12.638;2022-08-21T05:33:42;89.30;;;44.45;;
71391;SDS011;59205;50.610;12.638;2022-08-21T05:36:08;84.93;;;43.42;;
71391;SDS011;59205;50.610;12.638;2022-08-21T05:38:34;83.40;;;42.83;;
71391;SDS011;59205;50.610;12.638;2022-08-21T05:40:59;72.80;;;38.97;;
71391;SDS011;59205;50.610;12.638;2022-08-21T05:43:25;75.32;;;40.03;;
71391;SDS011;59205;50.610;12.638;2022-08-21T05:45:50;69.95;;;39.10;;
71391;SDS011;59205;50.610;12.638;2022-08-21T05:48:17;71.55;;;39.03;;
71391;SDS011;59205;50.610;12.638;2022-08-21T05:50:48;72.53;;;38.67;;
71391;SDS011;59205;50.610;12.638;2022-08-21T05:53:15;66.35;;;38.08;;
71391;SDS011;59205;50.610;12.638;2022-08-21T05:55:42;75.75;;;40.17;;
71391;SDS011;59205;50.610;12.638;2022-08-21T05:58:08;64.53;;;38.13;;
71391;SDS011;59205;50.610;12.638;2022-08-21T06:00:33;68.57;;;38.40;;
71391;SDS011;59205;50.610;12.638;2022-08-21T06:02:59;70.95;;;38.85;;
71391;SDS011;59205;50.610;12.638;2022-08-21T06:05:25;75.68;;;39.97;;
71391;SDS011;59205;50.610;12.638;2022-08-21T06:07:51;72.00;;;40.63;;
71391;SDS011;59205;50.610;12.638;2022-08-21T06:10:17;74.10;;;40.10;;
71391;SDS011;59205;50.610;12.638;2022-08-21T06:12:43;70.50;;;39.22;;
71391;SDS011;59205;50.610;12.638;2022-08-21T06:15:08;73.28;;;40.78;;
71391;SDS011;59205;50.610;12.638;2022-08-21T06:17:36;67.50;;;40.35;;
71391;SDS011;59205;50.610;12.638;2022-08-21T06:20:02;68.72;;;40.17;;
71391;SDS011;59205;50.610;12.638;2022-08-21T06:22:29;72.70;;;40.17;;
71391;SDS011;59205;50.610;12.638;2022-08-21T06:24:54;69.35;;;40.25;;
71391;SDS011;59205;50.610;12.638;2022-08-21T06:27:20;65.55;;;38.17;;
71391;SDS011;59205;50.610;12.638;2022-08-21T06:29:46;71.00;;;39.10;;
71391;SDS011;59205;50.610;12.638;2022-08-21T06:32:12;72.53;;;40.13;;
71391;SDS011;59205;50.610;12.638;2022-08-21T06:34:38;64.72;;;38.00;;
71391;SDS011;59205;50.610;12.638;2022-08-21T06:37:06;65.07;;;39.08;;
71391;SDS011;59205;50.610;12.638;2022-08-21T06:39:32;61.15;;;38.83;;
71391;SDS011;59205;50.610;12.638;2022-08-21T06:41:58;63.85;;;37.15;;
71391;SDS011;59205;50.610;12.638;2022-08-21T06:44:24;64.18;;;37.95;;
71391;SDS011;59205;50.610;12.638;2022-08-21T06:46:50;64.22;;;38.33;;
71391;SDS011;59205;50.610;12.638;2022-08-21T06:49:16;62.20;;;38.25;;
71391;SDS011;59205;50.610;12.638;2022-08-21T06:51:41;69.22;;;40.78;;
71391;SDS011;59205;50.610;12.638;2022-08-21T06:54:07;64.90;;;37.92;;
71391;SDS011;59205;50.610;12.638;2022-08-21T06:56:33;68.10;;;40.03;;
71391;SDS011;59205;50.610;12.638;2022-08-21T06:59:00;81.00;;;43.15;;
71391;SDS011;59205;50.610;12.638;2022-08-21T07:01:26;82.75;;;44.40;;
71391;SDS011;59205;50.610;12.638;2022-08-21T07:03:51;78.35;;;44.00;;
71391;SDS011;59205;50.610;12.638;2022-08-21T07:06:17;80.68;;;43.88;;
71391;SDS011;59205;50.610;12.638;2022-08-21T07:08:43;74.93;;;41.42;;
71391;SDS011;59205;50.610;12.638;2022-08-21T07:11:09;76.93;;;44.08;;
71391;SDS011;59205;50.610;12.638;2022-08-21T07:13:39;130.90;;;82.90;;
71391;SDS011;59205;50.610;12.638;2022-08-21T07:16:06;71.90;;;43.63;;
71391;SDS011;59205;50.610;12.638;2022-08-21T07:18:33;65.60;;;40.60;;
71391;SDS011;59205;50.610;12.638;2022-08-21T07:21:00;61.22;;;38.95;;
71391;SDS011;59205;50.610;12.638;2022-08-21T07:23:29;66.28;;;40.65;;
71391;SDS011;59205;50.610;12.638;2022-08-21T07:25:57;67.75;;;41.28;;
71391;SDS011;59205;50.610;12.638;2022-08-21T07:28:25;64.20;;;39.67;;
71391;SDS011;59205;50.610;12.638;2022-08-21T07:30:52;61.00;;;39.05;;
71391;SDS011;59205;50.610;12.638;2022-08-21T07:33:20;65.25;;;40.70;;
71391;SDS011;59205;50.610;12.638;2022-08-21T07:35:45;61.80;;;38.72;;
71391;SDS011;59205;50.610;12.638;2022-08-21T07:38:11;65.05;;;39.75;;
71391;SDS011;59205;50.610;12.638;2022-08-21T07:40:36;63.42;;;38.50;;
71391;SDS011;59205;50.610;12.638;2022-08-21T07:43:03;52.17;;;34.95;;
71391;SDS011;59205;50.610;12.638;2022-08-21T07:45:28;55.28;;;37.80;;
71391;SDS011;59205;50.610;12.638;2022-08-21T07:47:54;51.97;;;35.88;;
71391;SDS011;59205;50.610;12.638;2022-08-21T07:50:20;46.85;;;32.17;;
71391;SDS011;59205;50.610;12.638;2022-08-21T07:52:45;44.10;;;31.10;;
71391;SDS011;59205;50.610;12.638;2022-08-21T07:55:13;38.13;;;27.67;;
71391;SDS011;59205;50.610;12.638;2022-08-21T07:57:41;38.20;;;27.52;;
71391;SDS011;59205;50.610;12.638;2022-08-21T08:00:08;39.75;;;28.27;;
71391;SDS011;59205;50.610;12.638;2022-08-21T08:02:37;34.90;;;26.83;;
71391;SDS011;59205;50.610;12.638;2022-08-21T08:05:07;36.83;;;25.45;;
71391;SDS011;59205;50.610;12.638;2022-08-21T08:07:34;32.65;;;24.98;;
71391;SDS011;59205;50.610;12.638;2022-08-21T08:10:00;34.17;;;25.15;;
71391;SDS011;59205;50.610;12.638;2022-08-21T08:12:26;33.30;;;25.00;;
71391;SDS011;59205;50.610;12.638;2022-08-21T08:14:57;32.97;;;24.25;;
71391;SDS011;59205;50.610;12.638;2022-08-21T08:17:24;30.98;;;23.85;;
71391;SDS011;59205;50.610;12.638;2022-08-21T08:19:50;32.88;;;23.35;;
71391;SDS011;59205;50.610;12.638;2022-08-21T08:22:17;29.45;;;21.25;;
71391;SDS011;59205;50.610;12.638;2022-08-21T08:24:45;29.42;;;21.00;;
71391;SDS011;59205;50.610;12.638;2022-08-21T08:27:11;27.10;;;21.88;;
71391;SDS011;59205;50.610;12.638;2022-08-21T08:29:37;73.38;;;54.03;;
71391;SDS011;59205;50.610;12.638;2022-08-21T08:32:03;28.38;;;22.95;;
71391;SDS011;59205;50.610;12.638;2022-08-21T08:34:30;26.65;;;21.50;;
71391;SDS011;59205;50.610;12.638;2022-08-21T08:36:56;25.65;;;19.73;;
71391;SDS011;59205;50.610;12.638;2022-08-21T08:39:22;23.23;;;17.80;;
71391;SDS011;59205;50.610;12.638;2022-08-21T08:41:48;24.38;;;19.58;;
71391;SDS011;59205;50.610;12.638;2022-08-21T08:44:16;25.02;;;18.55;;
71391;SDS011;59205;50.610;12.638;2022-08-21T08:46:46;20.88;;;16.30;;
71391;SDS011;59205;50.610;12.638;2022-08-21T08:49:18;23.58;;;16.88;;
71391;SDS011;59205;50.610;12.638;2022-08-21T08:54:45;19.00;;;14.73;;
71391;SDS011;59205;50.610;12.638;2022-08-21T08:57:20;17.58;;;13.10;;
71391;SDS011;59205;50.610;12.638;2022-08-21T08:59:49;14.50;;;11.43;;
71391;SDS011;59205;50.610;12.638;2022-08-21T09:02:17;16.38;;;10.85;;
71391;SDS011;59205;50.610;12.638;2022-08-21T09:04:44;98.47;;;72.72;;
71391;SDS011;59205;50.610;12.638;2022-08-21T09:07:16;18.65;;;14.63;;
71391;SDS011;59205;50.610;12.638;2022-08-21T09:15:30;18.38;;;12.10;;
71391;SDS011;59205;50.610;12.638;2022-08-21T09:18:07;15.10;;;11.98;;
71391;SDS011;59205;50.610;12.638;2022-08-21T09:23:43;14.45;;;12.10;;
71391;SDS011;59205;50.610;12.638;2022-08-21T09:26:17;15.77;;;11.00;;
71391;SDS011;59205;50.610;12.638;2022-08-21T09:28:45;13.20;;;9.13;;
71391;SDS011;59205;50.610;12.638;2022-08-21T09:31:24;11.70;;;8.40;;
71391;SDS011;59205;50.610;12.638;2022-08-21T09:34:00;11.60;;;7.45;;
71391;SDS011;59205;50.610;12.638;2022-08-21T09:39:30;11.10;;;7.25;;
71391;SDS011;59205;50.610;12.638;2022-08-21T09:42:06;19.90;;;16.15;;
71391;SDS011;59205;50.610;12.638;2022-08-21T09:44:40;10.77;;;6.68;;
71391;SDS011;59205;50.610;12.638;2022-08-21T09:47:09;12.85;;;7.63;;
71391;SDS011;59205;50.610;12.638;2022-08-21T09:49:38;16.08;;;7.45;;
71391;SDS011;59205;50.610;12.638;2022-08-21T09:52:21;9.00;;;6.88;;
71391;SDS011;59205;50.610;12.638;2022-08-21T09:54:50;12.23;;;8.30;;
71391;SDS011;59205;50.610;12.638;2022-08-21T09:57:29;10.70;;;6.63;;
71391;SDS011;59205;50.610;12.638;2022-08-21T10:05:34;9.50;;;5.28;;
71391;SDS011;59205;50.610;12.638;2022-08-21T10:08:00;8.68;;;4.30;;
71391;SDS011;59205;50.610;12.638;2022-08-21T10:10:28;6.85;;;4.28;;
71391;SDS011;59205;50.610;12.638;2022-08-21T10:16:12;8.18;;;3.72;;
71391;SDS011;59205;50.610;12.638;2022-08-21T10:21:33;8.05;;;4.47;;
71391;SDS011;59205;50.610;12.638;2022-08-21T10:24:20;5.55;;;3.78;;
71391;SDS011;59205;50.610;12.638;2022-08-21T10:35:18;6.85;;;4.50;;
71391;SDS011;59205;50.610;12.638;2022-08-21T10:40:56;9.32;;;4.63;;
71391;SDS011;59205;50.610;12.638;2022-08-21T10:54:38;6.47;;;4.20;;
71391;SDS011;59205;50.610;12.638;2022-08-21T10:57:16;9.15;;;4.40;;
71391;SDS011;59205;50.610;12.638;2022-08-21T10:59:52;6.72;;;4.40;;
71391;SDS011;59205;50.610;12.638;2022-08-21T11:02:35;9.27;;;5.07;;
71391;SDS011;59205;50.610;12.638;2022-08-21T11:05:17;8.38;;;5.47;;
71391;SDS011;59205;50.610;12.638;2022-08-21T11:07:57;8.43;;;5.32;;
71391;SDS011;59205;50.610;12.638;2022-08-21T11:13:19;8.13;;;4.40;;
71391;SDS011;59205;50.610;12.638;2022-08-21T11:16:16;5.22;;;4.15;;
71391;SDS011;59205;50.610;12.638;2022-08-21T11:21:39;9.05;;;4.88;;
71391;SDS011;59205;50.610;12.638;2022-08-21T11:24:20;8.35;;;4.32;;
71391;SDS011;59205;50.610;12.638;2022-08-21T11:26:57;8.15;;;3.90;;
71391;SDS011;59205;50.610;12.638;2022-08-21T11:29:29;10.75;;;4.47;;
71391;SDS011;59205;50.610;12.638;2022-08-21T11:34:47;5.85;;;4.45;;
71391;SDS011;59205;50.610;12.638;2022-08-21T11:37:31;8.45;;;4.63;;
71391;SDS011;59205;50.610;12.638;2022-08-21T11:40:29;7.97;;;4.80;;
71391;SDS011;59205;50.610;12.638;2022-08-21T11:45:54;7.70;;;4.50;;
71391;SDS011;59205;50.610;12.638;2022-08-21T11:51:07;7.93;;;3.72;;
71391;SDS011;59205;50.610;12.638;2022-08-21T11:53:39;7.07;;;4.30;;
71391;SDS011;59205;50.610;12.638;2022-08-21T11:56:21;6.93;;;4.43;;
71391;SDS011;59205;50.610;12.638;2022-08-21T11:58:56;9.43;;;4.45;;
71391;SDS011;59205;50.610;12.638;2022-08-21T12:01:29;10.65;;;4.38;;
71391;SDS011;59205;50.610;12.638;2022-08-21T12:04:00;7.10;;;4.30;;
71391;SDS011;59205;50.610;12.638;2022-08-21T12:06:33;8.88;;;4.38;;
71391;SDS011;59205;50.610;12.638;2022-08-21T12:09:06;7.85;;;4.13;;
71391;SDS011;59205;50.610;12.638;2022-08-21T12:17:08;6.93;;;4.10;;
71391;SDS011;59205;50.610;12.638;2022-08-21T12:19:42;7.05;;;3.88;;
71391;SDS011;59205;50.610;12.638;2022-08-21T12:22:10;7.15;;;3.70;;
71391;SDS011;59205;50.610;12.638;2022-08-21T12:24:42;6.13;;;3.70;;
71391;SDS011;59205;50.610;12.638;2022-08-21T12:29:45;6.97;;;4.00;;
71391;SDS011;59205;50.610;12.638;2022-08-21T12:34:40;6.20;;;3.50;;
71391;SDS011;59205;50.610;12.638;2022-08-21T12:39:54;4.65;;;3.10;;
71391;SDS011;59205;50.610;12.638;2022-08-21T12:47:33;6.53;;;2.97;;
71391;SDS011;59205;50.610;12.638;2022-08-21T12:50:13;6.18;;;2.97;;
71391;SDS011;59205;50.610;12.638;2022-08-21T12:52:55;7.63;;;3.00;;
71391;SDS011;59205;50.610;12.638;2022-08-21T12:55:32;4.45;;;3.20;;
71391;SDS011;59205;50.610;12.638;2022-08-21T12:57:59;6.93;;;3.58;;
71391;SDS011;59205;50.610;12.638;2022-08-21T13:00:26;5.80;;;3.33;;
71391;SDS011;59205;50.610;12.638;2022-08-21T13:02:54;7.05;;;2.80;;
71391;SDS011;59205;50.610;12.638;2022-08-21T13:07:58;4.72;;;3.28;;
71391;SDS011;59205;50.610;12.638;2022-08-21T13:10:30;5.32;;;3.20;;
71391;SDS011;59205;50.610;12.638;2022-08-21T13:12:59;5.18;;;3.03;;
71391;SDS011;59205;50.610;12.638;2022-08-21T13:15:29;5.20;;;2.80;;
71391;SDS011;59205;50.610;12.638;2022-08-21T13:17:56;4.82;;;3.17;;
71391;SDS011;59205;50.610;12.638;2022-08-21T13:20:37;6.72;;;3.47;;
71391;SDS011;59205;50.610;12.638;2022-08-21T13:23:19;5.65;;;3.10;;
71391;SDS011;59205;50.610;12.638;2022-08-21T13:25:50;4.95;;;3.22;;
71391;SDS011;59205;50.610;12.638;2022-08-21T13:28:15;6.85;;;2.90;;
71391;SDS011;59205;50.610;12.638;2022-08-21T13:30:41;4.93;;;3.00;;
71391;SDS011;59205;50.610;12.638;2022-08-21T13:33:09;5.70;;;3.20;;
71391;SDS011;59205;50.610;12.638;2022-08-21T13:38:15;6.47;;;2.90;;
71391;SDS011;59205;50.610;12.638;2022-08-21T13:40:47;6.93;;;3.20;;
71391;SDS011;59205;50.610;12.638;2022-08-21T13:43:20;5.93;;;3.15;;
71391;SDS011;59205;50.610;12.638;2022-08-21T13:45:52;6.43;;;3.40;;
71391;SDS011;59205;50.610;12.638;2022-08-21T13:48:19;6.45;;;2.90;;
71391;SDS011;59205;50.610;12.638;2022-08-21T13:50:46;5.57;;;2.90;;
71391;SDS011;59205;50.610;12.638;2022-08-21T13:54:13;6.47;;;3.13;;
71391;SDS011;59205;50.610;12.638;2022-08-21T13:56:09;7.95;;;3.20;;
71391;SDS011;59205;50.610;12.638;2022-08-21T13:58:51;6.20;;;3.50;;
71391;SDS011;59205;50.610;12.638;2022-08-21T14:03:49;7.15;;;2.92;;
71391;SDS011;59205;50.610;12.638;2022-08-21T14:06:18;5.35;;;2.95;;
71391;SDS011;59205;50.610;12.638;2022-08-21T14:08:54;6.13;;;2.97;;
71391;SDS011;59205;50.610;12.638;2022-08-21T14:11:23;5.10;;;2.95;;
71391;SDS011;59205;50.610;12.638;2022-08-21T14:16:21;4.72;;;2.78;;
71391;SDS011;59205;50.610;12.638;2022-08-21T14:21:28;6.00;;;2.90;;
71391;SDS011;59205;50.610;12.638;2022-08-21T14:23:59;6.22;;;2.90;;
71391;SDS011;59205;50.610;12.638;2022-08-21T14:26:42;9.20;;;4.18;;
71391;SDS011;59205;50.610;12.638;2022-08-21T14:29:11;5.93;;;3.10;;
71391;SDS011;59205;50.610;12.638;2022-08-21T14:31:39;6.10;;;2.75;;
71391;SDS011;59205;50.610;12.638;2022-08-21T14:34:05;6.47;;;2.63;;
71391;SDS011;59205;50.610;12.638;2022-08-21T14:36:30;3.22;;;2.45;;
71391;SDS011;59205;50.610;12.638;2022-08-21T14:38:56;8.02;;;3.05;;
71391;SDS011;59205;50.610;12.638;2022-08-21T14:41:22;5.85;;;3.20;;
71391;SDS011;59205;50.610;12.638;2022-08-21T14:43:51;5.30;;;3.00;;
71391;SDS011;59205;50.610;12.638;2022-08-21T14:46:26;6.95;;;2.97;;
71391;SDS011;59205;50.610;12.638;2022-08-21T14:48:53;5.13;;;2.90;;
71391;SDS011;59205;50.610;12.638;2022-08-21T14:51:19;5.75;;;2.80;;
71391;SDS011;59205;50.610;12.638;2022-08-21T14:53:44;5.75;;;2.80;;
71391;SDS011;59205;50.610;12.638;2022-08-21T14:56:10;5.03;;;2.90;;
71391;SDS011;59205;50.610;12.638;2022-08-21T14:58:40;4.32;;;2.72;;
71391;SDS011;59205;50.610;12.638;2022-08-21T15:01:09;7.18;;;3.03;;
71391;SDS011;59205;50.610;12.638;2022-08-21T15:03:36;5.20;;;2.67;;
71391;SDS011;59205;50.610;12.638;2022-08-21T15:06:02;4.68;;;2.85;;
71391;SDS011;59205;50.610;12.638;2022-08-21T15:08:29;3.67;;;2.47;;
71391;SDS011;59205;50.610;12.638;2022-08-21T15:10:54;5.65;;;2.90;;
71391;SDS011;59205;50.610;12.638;2022-08-21T15:13:21;6.38;;;2.72;;
71391;SDS011;59205;50.610;12.638;2022-08-21T15:15:48;5.10;;;2.60;;
71391;SDS011;59205;50.610;12.638;2022-08-21T15:18:15;5.45;;;2.70;;
71391;SDS011;59205;50.610;12.638;2022-08-21T15:20:40;5.57;;;2.88;;
71391;SDS011;59205;50.610;12.638;2022-08-21T15:23:06;5.25;;;3.00;;
71391;SDS011;59205;50.610;12.638;2022-08-21T15:25:33;5.93;;;3.20;;
71391;SDS011;59205;50.610;12.638;2022-08-21T15:27:59;6.75;;;3.05;;
71391;SDS011;59205;50.610;12.638;2022-08-21T15:30:26;6.68;;;2.97;;
71391;SDS011;59205;50.610;12.638;2022-08-21T15:32:51;5.57;;;2.80;;
71391;SDS011;59205;50.610;12.638;2022-08-21T15:35:17;6.80;;;2.85;;
71391;SDS011;59205;50.610;12.638;2022-08-21T15:37:43;5.78;;;2.67;;
71391;SDS011;59205;50.610;12.638;2022-08-21T15:40:08;7.45;;;2.90;;
71391;SDS011;59205;50.610;12.638;2022-08-21T15:42:34;21.30;;;14.43;;
71391;SDS011;59205;50.610;12.638;2022-08-21T15:45:00;8.85;;;3.15;;
71391;SDS011;59205;50.610;12.638;2022-08-21T15:47:28;4.20;;;2.83;;
71391;SDS011;59205;50.610;12.638;2022-08-21T15:49:58;7.13;;;3.03;;
71391;SDS011;59205;50.610;12.638;2022-08-21T15:52:24;5.90;;;3.05;;
71391;SDS011;59205;50.610;12.638;2022-08-21T15:54:49;4.05;;;2.78;;
71391;SDS011;59205;50.610;12.638;2022-08-21T15:57:16;5.72;;;2.83;;
71391;SDS011;59205;50.610;12.638;2022-08-21T15:59:47;3.60;;;2.53;;